sensor_id;sensor_type;location;lat;lon;timestamp;temperature;humidity
11599;DHT22;5855;48.840;9.188;2022-10-16T00:01:07;16.30;99.90
11599;DHT22;5855;48.840;9.188;2022-10-16T00:03:34;16.30;99.90
11599;DHT22;5855;48.840;9.188;2022-10-16T00:06:02;16.30;99.90
11599;DHT22;5855;48.840;9.188;2022-10-16T00:08:29;16.20;99.90
11599;DHT22;5855;48.840;9.188;2022-10-16T00:11:01;16.20;99.90
11599;DHT22;5855;48.840;9.188;2022-10-16T00:13:28;16.20;99.90
11599;DHT22;5855;48.840;9.188;2022-10-16T00:15:57;16.10;99.90
11599;DHT22;5855;48.840;9.188;2022-10-16T00:18:25;16.00;99.90
11599;DHT22;5855;48.840;9.188;2022-10-16T00:20:53;16.00;99.90
11599;DHT22;5855;48.840;9.188;2022-10-16T00:23:20;15.90;99.90
11599;DHT22;5855;48.840;9.188;2022-10-16T00:25:54;15.90;99.90
11599;DHT22;5855;48.840;9.188;2022-10-16T00:28:21;15.80;99.90
11599;DHT22;5855;48.840;9.188;2022-10-16T00:30:48;15.80;99.90
11599;DHT22;5855;48.840;9.188;2022-10-16T00:33:16;15.80;99.90
11599;DHT22;5855;48.840;9.188;2022-10-16T00:35:43;15.90;99.90
11599;DHT22;5855;48.840;9.188;2022-10-16T00:38:10;15.90;99.90
11599;DHT22;5855;48.840;9.188;2022-10-16T00:40:36;15.90;99.90
11599;DHT22;5855;48.840;9.188;2022-10-16T00:43:12;15.90;99.90
11599;DHT22;5855;48.840;9.188;2022-10-16T00:45:39;16.00;99.90
11599;DHT22;5855;48.840;9.188;2022-10-16T00:48:09;16.10;99.90
11599;DHT22;5855;48.840;9.188;2022-10-16T00:50:39;16.10;99.90
11599;DHT22;5855;48.840;9.188;2022-10-16T00:53:08;16.00;99.90
11599;DHT22;5855;48.840;9.188;2022-10-16T00:55:37;16.00;99.90
11599;DHT22;5855;48.840;9.188;2022-10-16T00:58:04;15.90;99.90
11599;DHT22;5855;48.840;9.188;2022-10-16T01:00:31;15.90;99.90
11599;DHT22;5855;48.840;9.188;2022-10-16T01:03:00;15.80;99.90
11599;DHT22;5855;48.840;9.188;2022-10-16T01:05:33;15.70;99.90
11599;DHT22;5855;48.840;9.188;2022-10-16T01:08:09;15.70;99.90
11599;DHT22;5855;48.840;9.188;2022-10-16T01:10:40;15.60;99.90
11599;DHT22;5855;48.840;9.188;2022-10-16T01:13:11;15.60;99.90
11599;DHT22;5855;48.840;9.188;2022-10-16T01:15:44;15.60;99.90
11599;DHT22;5855;48.840;9.188;2022-10-16T01:18:17;15.60;99.90
11599;DHT22;5855;48.840;9.188;2022-10-16T01:20:49;15.50;99.90
11599;DHT22;5855;48.840;9.188;2022-10-16T01:23:38;15.50;99.90
11599;DHT22;5855;48.840;9.188;2022-10-16T01:26:28;15.50;99.90
11599;DHT22;5855;48.840;9.188;2022-10-16T01:29:03;15.50;99.90
11599;DHT22;5855;48.840;9.188;2022-10-16T01:31:35;15.50;99.90
11599;DHT22;5855;48.840;9.188;2022-10-16T01:34:04;15.50;99.90
11599;DHT22;5855;48.840;9.188;2022-10-16T01:36:37;15.50;99.90
11599;DHT22;5855;48.840;9.188;2022-10-16T01:39:07;15.50;99.90
11599;DHT22;5855;48.840;9.188;2022-10-16T01:41:39;15.50;99.90
11599;DHT22;5855;48.840;9.188;2022-10-16T01:44:11;15.50;99.90
11599;DHT22;5855;48.840;9.188;2022-10-16T01:46:42;15.50;99.90
11599;DHT22;5855;48.840;9.188;2022-10-16T01:49:10;15.40;99.90
11599;DHT22;5855;48.840;9.188;2022-10-16T01:51:38;15.40;99.90
11599;DHT22;5855;48.840;9.188;2022-10-16T01:54:06;15.40;99.90
11599;DHT22;5855;48.840;9.188;2022-10-16T01:56:35;15.40;99.90
11599;DHT22;5855;48.840;9.188;2022-10-16T01:59:05;15.40;99.90
11599;DHT22;5855;48.840;9.188;2022-10-16T02:01:36;15.40;99.90
11599;DHT22;5855;48.840;9.188;2022-10-16T02:04:11;15.40;99.90
11599;DHT22;5855;48.840;9.188;2022-10-16T02:06:38;15.40;99.90
11599;DHT22;5855;48.840;9.188;2022-10-16T02:09:05;15.40;99.90
11599;DHT22;5855;48.840;9.188;2022-10-16T02:11:32;15.40;99.90
11599;DHT22;5855;48.840;9.188;2022-10-16T02:14:01;15.50;99.90
11599;DHT22;5855;48.840;9.188;2022-10-16T02:16:34;15.50;99.90
11599;DHT22;5855;48.840;9.188;2022-10-16T02:19:02;15.50;99.90
11599;DHT22;5855;48.840;9.188;2022-10-16T02:21:31;15.50;99.90
11599;DHT22;5855;48.840;9.188;2022-10-16T02:24:04;15.50;99.90
11599;DHT22;5855;48.840;9.188;2022-10-16T02:26:38;15.60;99.90
11599;DHT22;5855;48.840;9.188;2022-10-16T02:29:11;15.60;99.90
11599;DHT22;5855;48.840;9.188;2022-10-16T02:31:43;15.60;99.90
11599;DHT22;5855;48.840;9.188;2022-10-16T02:34:13;15.60;99.90
11599;DHT22;5855;48.840;9.188;2022-10-16T02:36:42;15.70;99.90
11599;DHT22;5855;48.840;9.188;2022-10-16T02:39:09;15.70;99.90
11599;DHT22;5855;48.840;9.188;2022-10-16T02:41:37;15.70;99.90
11599;DHT22;5855;48.840;9.188;2022-10-16T02:44:04;15.70;99.90
11599;DHT22;5855;48.840;9.188;2022-10-16T02:46:31;15.70;99.90
11599;DHT22;5855;48.840;9.188;2022-10-16T02:48:59;15.70;99.90
11599;DHT22;5855;48.840;9.188;2022-10-16T02:51:26;15.70;99.90
11599;DHT22;5855;48.840;9.188;2022-10-16T02:53:53;15.70;99.90
11599;DHT22;5855;48.840;9.188;2022-10-16T02:56:20;15.60;99.90
11599;DHT22;5855;48.840;9.188;2022-10-16T02:58:47;15.60;99.90
11599;DHT22;5855;48.840;9.188;2022-10-16T03:01:13;15.60;99.90
11599;DHT22;5855;48.840;9.188;2022-10-16T03:03:42;15.60;99.90
11599;DHT22;5855;48.840;9.188;2022-10-16T03:06:10;15.60;99.90
11599;DHT22;5855;48.840;9.188;2022-10-16T03:08:37;15.50;99.90
11599;DHT22;5855;48.840;9.188;2022-10-16T03:11:04;15.60;99.90
11599;DHT22;5855;48.840;9.188;2022-10-16T03:13:31;15.50;99.90
11599;DHT22;5855;48.840;9.188;2022-10-16T03:15:58;15.50;99.90
11599;DHT22;5855;48.840;9.188;2022-10-16T03:18:24;15.50;99.90
11599;DHT22;5855;48.840;9.188;2022-10-16T03:20:51;15.50;99.90
11599;DHT22;5855;48.840;9.188;2022-10-16T03:23:19;15.50;99.90
11599;DHT22;5855;48.840;9.188;2022-10-16T03:25:46;15.50;99.90
11599;DHT22;5855;48.840;9.188;2022-10-16T03:28:13;15.50;99.90
11599;DHT22;5855;48.840;9.188;2022-10-16T03:30:40;15.40;99.90
11599;DHT22;5855;48.840;9.188;2022-10-16T03:33:06;15.40;99.90
11599;DHT22;5855;48.840;9.188;2022-10-16T03:35:33;15.40;99.90
11599;DHT22;5855;48.840;9.188;2022-10-16T03:38:00;15.40;99.90
11599;DHT22;5855;48.840;9.188;2022-10-16T03:40:28;15.40;99.90
11599;DHT22;5855;48.840;9.188;2022-10-16T03:42:56;15.40;99.90
11599;DHT22;5855;48.840;9.188;2022-10-16T03:45:23;15.40;99.90
11599;DHT22;5855;48.840;9.188;2022-10-16T03:47:50;15.40;99.90
11599;DHT22;5855;48.840;9.188;2022-10-16T03:50:17;15.40;99.90
11599;DHT22;5855;48.840;9.188;2022-10-16T03:52:44;15.40;99.90
11599;DHT22;5855;48.840;9.188;2022-10-16T03:55:10;15.30;99.90
11599;DHT22;5855;48.840;9.188;2022-10-16T03:57:39;15.30;99.90
11599;DHT22;5855;48.840;9.188;2022-10-16T04:00:06;15.40;99.90
11599;DHT22;5855;48.840;9.188;2022-10-16T04:02:33;15.30;99.90
11599;DHT22;5855;48.840;9.188;2022-10-16T04:05:00;15.30;99.90
11599;DHT22;5855;48.840;9.188;2022-10-16T04:07:27;15.30;99.90
11599;DHT22;5855;48.840;9.188;2022-10-16T04:09:54;15.30;99.90
11599;DHT22;5855;48.840;9.188;2022-10-16T04:12:22;15.30;99.90
11599;DHT22;5855;48.840;9.188;2022-10-16T04:14:51;15.30;99.90
11599;DHT22;5855;48.840;9.188;2022-10-16T04:17:17;15.30;99.90
11599;DHT22;5855;48.840;9.188;2022-10-16T04:19:45;15.20;99.90
11599;DHT22;5855;48.840;9.188;2022-10-16T04:22:11;15.20;99.90
11599;DHT22;5855;48.840;9.188;2022-10-16T04:24:38;15.20;99.90
11599;DHT22;5855;48.840;9.188;2022-10-16T04:27:05;15.20;99.90
11599;DHT22;5855;48.840;9.188;2022-10-16T04:29:32;15.20;99.90
11599;DHT22;5855;48.840;9.188;2022-10-16T04:32:00;15.20;99.90
11599;DHT22;5855;48.840;9.188;2022-10-16T04:34:27;15.10;99.90
11599;DHT22;5855;48.840;9.188;2022-10-16T04:36:53;15.10;99.90
11599;DHT22;5855;48.840;9.188;2022-10-16T04:39:20;15.10;99.90
11599;DHT22;5855;48.840;9.188;2022-10-16T04:41:47;15.10;99.90
11599;DHT22;5855;48.840;9.188;2022-10-16T04:44:14;15.10;99.90
11599;DHT22;5855;48.840;9.188;2022-10-16T04:46:41;15.10;99.90
11599;DHT22;5855;48.840;9.188;2022-10-16T04:49:09;15.10;99.90
11599;DHT22;5855;48.840;9.188;2022-10-16T04:51:36;15.10;99.90
11599;DHT22;5855;48.840;9.188;2022-10-16T04:54:03;15.10;99.90
11599;DHT22;5855;48.840;9.188;2022-10-16T04:56:29;15.10;99.90
11599;DHT22;5855;48.840;9.188;2022-10-16T04:58:56;15.10;99.90
11599;DHT22;5855;48.840;9.188;2022-10-16T05:01:23;15.10;99.90
11599;DHT22;5855;48.840;9.188;2022-10-16T05:03:50;15.10;99.90
11599;DHT22;5855;48.840;9.188;2022-10-16T05:06:18;15.10;99.90
11599;DHT22;5855;48.840;9.188;2022-10-16T05:08:45;15.10;99.90
11599;DHT22;5855;48.840;9.188;2022-10-16T05:11:11;15.20;99.90
11599;DHT22;5855;48.840;9.188;2022-10-16T05:13:38;15.10;99.90
11599;DHT22;5855;48.840;9.188;2022-10-16T05:16:05;15.10;99.90
11599;DHT22;5855;48.840;9.188;2022-10-16T05:18:32;15.10;99.90
11599;DHT22;5855;48.840;9.188;2022-10-16T05:20:59;15.10;99.90
11599;DHT22;5855;48.840;9.188;2022-10-16T05:23:27;15.10;99.90
11599;DHT22;5855;48.840;9.188;2022-10-16T05:25:55;15.10;99.90
11599;DHT22;5855;48.840;9.188;2022-10-16T05:28:23;15.10;99.90
11599;DHT22;5855;48.840;9.188;2022-10-16T05:30:50;15.10;99.90
11599;DHT22;5855;48.840;9.188;2022-10-16T05:33:19;15.00;99.90
11599;DHT22;5855;48.840;9.188;2022-10-16T05:35:45;15.00;99.90
11599;DHT22;5855;48.840;9.188;2022-10-16T05:38:12;15.00;99.90
11599;DHT22;5855;48.840;9.188;2022-10-16T05:40:41;15.00;99.90
11599;DHT22;5855;48.840;9.188;2022-10-16T05:43:07;15.00;99.90
11599;DHT22;5855;48.840;9.188;2022-10-16T05:45:34;15.00;99.90
11599;DHT22;5855;48.840;9.188;2022-10-16T05:48:01;15.00;99.90
11599;DHT22;5855;48.840;9.188;2022-10-16T05:50:28;15.00;99.90
11599;DHT22;5855;48.840;9.188;2022-10-16T05:52:55;15.00;99.90
11599;DHT22;5855;48.840;9.188;2022-10-16T05:55:23;15.00;99.90
11599;DHT22;5855;48.840;9.188;2022-10-16T05:57:54;15.00;99.90
11599;DHT22;5855;48.840;9.188;2022-10-16T06:00:20;15.00;99.90
11599;DHT22;5855;48.840;9.188;2022-10-16T06:02:47;15.00;99.90
11599;DHT22;5855;48.840;9.188;2022-10-16T06:05:14;15.00;99.90
11599;DHT22;5855;48.840;9.188;2022-10-16T06:07:41;15.10;99.90
11599;DHT22;5855;48.840;9.188;2022-10-16T06:10:08;15.00;99.90
11599;DHT22;5855;48.840;9.188;2022-10-16T06:12:35;15.10;99.90
11599;DHT22;5855;48.840;9.188;2022-10-16T06:15:04;15.10;99.90
11599;DHT22;5855;48.840;9.188;2022-10-16T06:17:31;15.10;99.90
11599;DHT22;5855;48.840;9.188;2022-10-16T06:19:58;15.10;99.90
11599;DHT22;5855;48.840;9.188;2022-10-16T06:22:24;15.10;99.90
11599;DHT22;5855;48.840;9.188;2022-10-16T06:24:51;15.10;99.90
11599;DHT22;5855;48.840;9.188;2022-10-16T06:27:18;15.10;99.90
11599;DHT22;5855;48.840;9.188;2022-10-16T06:29:45;15.20;99.90
11599;DHT22;5855;48.840;9.188;2022-10-16T06:32:13;15.20;99.90
11599;DHT22;5855;48.840;9.188;2022-10-16T06:34:40;15.20;99.90
11599;DHT22;5855;48.840;9.188;2022-10-16T06:37:06;15.20;99.90
11599;DHT22;5855;48.840;9.188;2022-10-16T06:39:33;15.30;99.90
11599;DHT22;5855;48.840;9.188;2022-10-16T06:42:00;15.30;99.90
11599;DHT22;5855;48.840;9.188;2022-10-16T06:44:27;15.30;99.90
11599;DHT22;5855;48.840;9.188;2022-10-16T06:46:53;15.40;99.90
11599;DHT22;5855;48.840;9.188;2022-10-16T06:49:22;15.40;99.90
11599;DHT22;5855;48.840;9.188;2022-10-16T06:51:49;15.50;99.90
11599;DHT22;5855;48.840;9.188;2022-10-16T06:54:16;15.50;99.90
11599;DHT22;5855;48.840;9.188;2022-10-16T06:56:43;15.50;99.90
11599;DHT22;5855;48.840;9.188;2022-10-16T06:59:10;15.60;99.90
11599;DHT22;5855;48.840;9.188;2022-10-16T07:01:37;15.60;99.90
11599;DHT22;5855;48.840;9.188;2022-10-16T07:04:04;15.70;99.90
11599;DHT22;5855;48.840;9.188;2022-10-16T07:06:33;15.70;99.90
11599;DHT22;5855;48.840;9.188;2022-10-16T07:09:03;15.80;99.90
11599;DHT22;5855;48.840;9.188;2022-10-16T07:11:30;15.90;99.90
11599;DHT22;5855;48.840;9.188;2022-10-16T07:13:58;16.00;99.90
11599;DHT22;5855;48.840;9.188;2022-10-16T07:16:27;16.10;99.90
11599;DHT22;5855;48.840;9.188;2022-10-16T07:18:54;16.20;99.90
11599;DHT22;5855;48.840;9.188;2022-10-16T07:21:24;16.30;99.90
11599;DHT22;5855;48.840;9.188;2022-10-16T07:23:54;16.40;99.90
11599;DHT22;5855;48.840;9.188;2022-10-16T07:26:22;16.40;99.90
11599;DHT22;5855;48.840;9.188;2022-10-16T07:28:49;16.40;99.90
11599;DHT22;5855;48.840;9.188;2022-10-16T07:31:18;16.40;99.90
11599;DHT22;5855;48.840;9.188;2022-10-16T07:33:46;16.30;99.90
11599;DHT22;5855;48.840;9.188;2022-10-16T07:36:14;16.30;99.90
11599;DHT22;5855;48.840;9.188;2022-10-16T07:38:41;16.30;99.90
11599;DHT22;5855;48.840;9.188;2022-10-16T07:41:11;16.30;99.90
11599;DHT22;5855;48.840;9.188;2022-10-16T07:43:39;16.30;99.90
11599;DHT22;5855;48.840;9.188;2022-10-16T07:46:06;16.30;99.90
11599;DHT22;5855;48.840;9.188;2022-10-16T07:48:34;16.30;99.90
11599;DHT22;5855;48.840;9.188;2022-10-16T07:51:02;16.40;99.90
11599;DHT22;5855;48.840;9.188;2022-10-16T07:53:29;16.50;99.90
11599;DHT22;5855;48.840;9.188;2022-10-16T07:55:57;16.50;99.90
11599;DHT22;5855;48.840;9.188;2022-10-16T07:58:26;16.60;99.90
11599;DHT22;5855;48.840;9.188;2022-10-16T08:00:53;16.60;99.90
11599;DHT22;5855;48.840;9.188;2022-10-16T08:03:20;16.70;99.90
11599;DHT22;5855;48.840;9.188;2022-10-16T08:05:47;16.80;99.90
11599;DHT22;5855;48.840;9.188;2022-10-16T08:08:15;16.90;99.90
11599;DHT22;5855;48.840;9.188;2022-10-16T08:10:42;17.10;99.90
11599;DHT22;5855;48.840;9.188;2022-10-16T08:13:09;17.10;99.90
11599;DHT22;5855;48.840;9.188;2022-10-16T08:15:37;17.30;99.90
11599;DHT22;5855;48.840;9.188;2022-10-16T08:18:05;17.50;99.90
11599;DHT22;5855;48.840;9.188;2022-10-16T08:20:32;17.70;99.90
11599;DHT22;5855;48.840;9.188;2022-10-16T08:23:00;18.00;99.90
11599;DHT22;5855;48.840;9.188;2022-10-16T08:25:27;18.20;99.90
11599;DHT22;5855;48.840;9.188;2022-10-16T08:27:54;18.40;99.90
11599;DHT22;5855;48.840;9.188;2022-10-16T08:30:22;18.70;99.90
11599;DHT22;5855;48.840;9.188;2022-10-16T08:32:50;18.80;99.90
11599;DHT22;5855;48.840;9.188;2022-10-16T08:35:17;18.80;99.90
11599;DHT22;5855;48.840;9.188;2022-10-16T08:37:44;18.90;99.90
11599;DHT22;5855;48.840;9.188;2022-10-16T08:40:17;18.70;99.90
11599;DHT22;5855;48.840;9.188;2022-10-16T08:45:47;18.70;99.90
11599;DHT22;5855;48.840;9.188;2022-10-16T08:48:20;18.60;99.90
11599;DHT22;5855;48.840;9.188;2022-10-16T08:50:50;18.60;99.90
11599;DHT22;5855;48.840;9.188;2022-10-16T08:53:20;18.70;99.90
11599;DHT22;5855;48.840;9.188;2022-10-16T08:55:50;18.70;99.90
11599;DHT22;5855;48.840;9.188;2022-10-16T08:58:19;18.70;99.90
11599;DHT22;5855;48.840;9.188;2022-10-16T09:00:48;18.80;99.90
11599;DHT22;5855;48.840;9.188;2022-10-16T09:03:32;18.70;99.90
11599;DHT22;5855;48.840;9.188;2022-10-16T09:06:14;18.80;99.90
11599;DHT22;5855;48.840;9.188;2022-10-16T09:08:51;18.90;99.90
11599;DHT22;5855;48.840;9.188;2022-10-16T09:11:26;19.00;99.90
11599;DHT22;5855;48.840;9.188;2022-10-16T09:14:02;19.10;99.90
11599;DHT22;5855;48.840;9.188;2022-10-16T09:16:35;19.30;99.90
11599;DHT22;5855;48.840;9.188;2022-10-16T09:19:13;19.40;99.90
11599;DHT22;5855;48.840;9.188;2022-10-16T09:21:43;19.80;99.90
11599;DHT22;5855;48.840;9.188;2022-10-16T09:24:13;20.10;99.90
11599;DHT22;5855;48.840;9.188;2022-10-16T09:26:42;20.40;99.90
11599;DHT22;5855;48.840;9.188;2022-10-16T09:29:11;20.80;99.90
11599;DHT22;5855;48.840;9.188;2022-10-16T09:31:39;21.10;99.90
11599;DHT22;5855;48.840;9.188;2022-10-16T09:34:24;21.40;99.90
11599;DHT22;5855;48.840;9.188;2022-10-16T09:36:54;21.60;99.90
11599;DHT22;5855;48.840;9.188;2022-10-16T09:39:22;21.60;99.90
11599;DHT22;5855;48.840;9.188;2022-10-16T09:41:49;21.60;99.90
11599;DHT22;5855;48.840;9.188;2022-10-16T09:44:21;21.60;99.90
11599;DHT22;5855;48.840;9.188;2022-10-16T09:46:49;21.60;99.90
11599;DHT22;5855;48.840;9.188;2022-10-16T09:49:22;21.60;99.90
11599;DHT22;5855;48.840;9.188;2022-10-16T09:51:50;21.70;99.90
11599;DHT22;5855;48.840;9.188;2022-10-16T09:54:18;21.80;99.90
11599;DHT22;5855;48.840;9.188;2022-10-16T09:56:46;21.90;99.90
11599;DHT22;5855;48.840;9.188;2022-10-16T09:59:18;22.20;99.90
11599;DHT22;5855;48.840;9.188;2022-10-16T10:01:47;22.40;99.90
11599;DHT22;5855;48.840;9.188;2022-10-16T10:04:15;22.50;99.90
11599;DHT22;5855;48.840;9.188;2022-10-16T10:06:45;22.90;99.90
11599;DHT22;5855;48.840;9.188;2022-10-16T10:09:18;23.10;99.90
11599;DHT22;5855;48.840;9.188;2022-10-16T10:11:50;23.30;99.90
11599;DHT22;5855;48.840;9.188;2022-10-16T10:14:26;23.70;99.90
11599;DHT22;5855;48.840;9.188;2022-10-16T10:17:08;23.80;99.90
11599;DHT22;5855;48.840;9.188;2022-10-16T10:19:40;24.10;99.90
11599;DHT22;5855;48.840;9.188;2022-10-16T10:22:23;24.30;99.90
11599;DHT22;5855;48.840;9.188;2022-10-16T10:25:12;24.60;99.90
11599;DHT22;5855;48.840;9.188;2022-10-16T10:27:53;25.00;99.90
11599;DHT22;5855;48.840;9.188;2022-10-16T10:30:27;25.80;99.90
11599;DHT22;5855;48.840;9.188;2022-10-16T10:33:12;26.60;99.90
11599;DHT22;5855;48.840;9.188;2022-10-16T10:35:45;27.30;99.90
11599;DHT22;5855;48.840;9.188;2022-10-16T10:38:25;28.10;99.90
11599;DHT22;5855;48.840;9.188;2022-10-16T10:41:02;28.60;99.90
11599;DHT22;5855;48.840;9.188;2022-10-16T10:43:43;28.80;99.90
11599;DHT22;5855;48.840;9.188;2022-10-16T10:46:17;28.80;99.90
11599;DHT22;5855;48.840;9.188;2022-10-16T10:49:06;28.80;99.90
11599;DHT22;5855;48.840;9.188;2022-10-16T10:51:40;29.20;99.90
11599;DHT22;5855;48.840;9.188;2022-10-16T10:54:15;29.60;99.90
11599;DHT22;5855;48.840;9.188;2022-10-16T10:56:49;29.80;99.90
11599;DHT22;5855;48.840;9.188;2022-10-16T11:02:24;32.80;96.80
11599;DHT22;5855;48.840;9.188;2022-10-16T11:05:08;34.90;90.70
11599;DHT22;5855;48.840;9.188;2022-10-16T11:07:45;36.50;81.70
11599;DHT22;5855;48.840;9.188;2022-10-16T11:10:18;37.50;71.50
11599;DHT22;5855;48.840;9.188;2022-10-16T11:12:47;37.70;65.50
11599;DHT22;5855;48.840;9.188;2022-10-16T11:15:19;37.60;61.90
11599;DHT22;5855;48.840;9.188;2022-10-16T11:17:51;36.40;63.30
11599;DHT22;5855;48.840;9.188;2022-10-16T11:20:21;37.50;59.70
11599;DHT22;5855;48.840;9.188;2022-10-16T11:22:52;38.20;57.80
11599;DHT22;5855;48.840;9.188;2022-10-16T11:25:26;39.50;53.60
11599;DHT22;5855;48.840;9.188;2022-10-16T11:27:58;39.90;52.00
11599;DHT22;5855;48.840;9.188;2022-10-16T11:30:30;40.10;49.60
11599;DHT22;5855;48.840;9.188;2022-10-16T11:33:04;40.20;48.40
11599;DHT22;5855;48.840;9.188;2022-10-16T11:35:40;39.60;47.00
11599;DHT22;5855;48.840;9.188;2022-10-16T11:38:13;38.40;47.00
11599;DHT22;5855;48.840;9.188;2022-10-16T11:40:43;38.10;48.20
11599;DHT22;5855;48.840;9.188;2022-10-16T11:43:17;38.10;48.40
11599;DHT22;5855;48.840;9.188;2022-10-16T11:45:46;38.00;47.20
11599;DHT22;5855;48.840;9.188;2022-10-16T11:48:21;39.20;45.80
11599;DHT22;5855;48.840;9.188;2022-10-16T11:50:52;38.40;45.70
11599;DHT22;5855;48.840;9.188;2022-10-16T11:53:35;38.80;46.50
11599;DHT22;5855;48.840;9.188;2022-10-16T11:56:05;39.50;44.90
11599;DHT22;5855;48.840;9.188;2022-10-16T11:58:40;39.30;44.20
11599;DHT22;5855;48.840;9.188;2022-10-16T12:01:17;40.00;43.30
11599;DHT22;5855;48.840;9.188;2022-10-16T12:03:51;40.40;42.60
11599;DHT22;5855;48.840;9.188;2022-10-16T12:06:29;40.70;42.80
11599;DHT22;5855;48.840;9.188;2022-10-16T12:08:59;40.00;42.90
11599;DHT22;5855;48.840;9.188;2022-10-16T12:11:36;40.40;42.00
11599;DHT22;5855;48.840;9.188;2022-10-16T12:17:03;41.70;39.70
11599;DHT22;5855;48.840;9.188;2022-10-16T12:19:32;41.40;39.50
11599;DHT22;5855;48.840;9.188;2022-10-16T12:22:01;41.80;39.00
11599;DHT22;5855;48.840;9.188;2022-10-16T12:24:35;41.30;38.80
11599;DHT22;5855;48.840;9.188;2022-10-16T12:27:06;40.00;39.90
11599;DHT22;5855;48.840;9.188;2022-10-16T12:29:36;38.40;42.80
11599;DHT22;5855;48.840;9.188;2022-10-16T12:32:05;36.80;44.50
11599;DHT22;5855;48.840;9.188;2022-10-16T12:34:38;35.80;46.00
11599;DHT22;5855;48.840;9.188;2022-10-16T12:37:12;35.00;49.00
11599;DHT22;5855;48.840;9.188;2022-10-16T12:39:39;35.80;49.00
11599;DHT22;5855;48.840;9.188;2022-10-16T12:42:22;36.30;46.30
11599;DHT22;5855;48.840;9.188;2022-10-16T12:44:49;36.70;46.60
11599;DHT22;5855;48.840;9.188;2022-10-16T12:47:22;37.00;45.70
11599;DHT22;5855;48.840;9.188;2022-10-16T12:49:51;37.50;44.90
11599;DHT22;5855;48.840;9.188;2022-10-16T12:52:27;38.50;43.80
11599;DHT22;5855;48.840;9.188;2022-10-16T12:54:56;40.70;41.80
11599;DHT22;5855;48.840;9.188;2022-10-16T12:57:42;42.00;39.90
11599;DHT22;5855;48.840;9.188;2022-10-16T13:00:21;43.10;37.30
11599;DHT22;5855;48.840;9.188;2022-10-16T13:03:18;44.20;35.20
11599;DHT22;5855;48.840;9.188;2022-10-16T13:05:58;44.30;34.10
11599;DHT22;5855;48.840;9.188;2022-10-16T13:11:26;43.90;34.60
11599;DHT22;5855;48.840;9.188;2022-10-16T13:14:09;43.90;35.00
11599;DHT22;5855;48.840;9.188;2022-10-16T13:16:50;43.80;34.30
11599;DHT22;5855;48.840;9.188;2022-10-16T13:19:25;44.10;33.60
11599;DHT22;5855;48.840;9.188;2022-10-16T13:21:59;44.50;32.70
11599;DHT22;5855;48.840;9.188;2022-10-16T13:24:49;44.20;33.10
11599;DHT22;5855;48.840;9.188;2022-10-16T13:27:28;43.40;32.80
11599;DHT22;5855;48.840;9.188;2022-10-16T13:30:10;42.20;33.40
11599;DHT22;5855;48.840;9.188;2022-10-16T13:32:38;41.30;35.00
11599;DHT22;5855;48.840;9.188;2022-10-16T13:35:19;39.90;36.90
11599;DHT22;5855;48.840;9.188;2022-10-16T13:37:46;38.50;39.10
11599;DHT22;5855;48.840;9.188;2022-10-16T13:40:19;37.20;40.80
11599;DHT22;5855;48.840;9.188;2022-10-16T13:42:46;35.90;43.10
11599;DHT22;5855;48.840;9.188;2022-10-16T13:45:22;34.70;44.00
11599;DHT22;5855;48.840;9.188;2022-10-16T13:47:49;33.40;45.70
11599;DHT22;5855;48.840;9.188;2022-10-16T13:50:17;32.70;47.80
11599;DHT22;5855;48.840;9.188;2022-10-16T13:52:45;32.20;48.30
11599;DHT22;5855;48.840;9.188;2022-10-16T13:55:12;31.90;50.60
11599;DHT22;5855;48.840;9.188;2022-10-16T13:57:40;32.20;54.20
11599;DHT22;5855;48.840;9.188;2022-10-16T14:00:26;33.00;53.10
11599;DHT22;5855;48.840;9.188;2022-10-16T14:02:58;34.80;51.80
11599;DHT22;5855;48.840;9.188;2022-10-16T14:05:27;35.60;49.10
11599;DHT22;5855;48.840;9.188;2022-10-16T14:07:55;35.40;48.90
11599;DHT22;5855;48.840;9.188;2022-10-16T14:10:25;34.40;50.60
11599;DHT22;5855;48.840;9.188;2022-10-16T14:12:57;33.40;52.90
11599;DHT22;5855;48.840;9.188;2022-10-16T14:15:26;32.40;54.90
11599;DHT22;5855;48.840;9.188;2022-10-16T14:17:54;31.50;56.90
11599;DHT22;5855;48.840;9.188;2022-10-16T14:20:24;30.80;59.50
11599;DHT22;5855;48.840;9.188;2022-10-16T14:22:59;30.10;62.50
11599;DHT22;5855;48.840;9.188;2022-10-16T14:25:28;29.60;66.40
11599;DHT22;5855;48.840;9.188;2022-10-16T14:28:03;29.00;70.00
11599;DHT22;5855;48.840;9.188;2022-10-16T14:30:33;28.70;72.80
11599;DHT22;5855;48.840;9.188;2022-10-16T14:33:02;28.30;77.10
11599;DHT22;5855;48.840;9.188;2022-10-16T14:35:31;27.90;81.20
11599;DHT22;5855;48.840;9.188;2022-10-16T14:38:00;27.60;85.30
11599;DHT22;5855;48.840;9.188;2022-10-16T14:40:29;27.40;88.50
11599;DHT22;5855;48.840;9.188;2022-10-16T14:42:56;27.20;90.90
11599;DHT22;5855;48.840;9.188;2022-10-16T14:45:26;27.00;92.00
11599;DHT22;5855;48.840;9.188;2022-10-16T14:47:57;26.80;93.60
11599;DHT22;5855;48.840;9.188;2022-10-16T14:50:24;26.80;95.80
11599;DHT22;5855;48.840;9.188;2022-10-16T14:52:51;27.30;95.80
11599;DHT22;5855;48.840;9.188;2022-10-16T14:55:18;27.60;95.20
11599;DHT22;5855;48.840;9.188;2022-10-16T14:57:45;27.70;95.80
11599;DHT22;5855;48.840;9.188;2022-10-16T15:00:16;27.70;95.80
11599;DHT22;5855;48.840;9.188;2022-10-16T15:02:44;27.50;96.60
11599;DHT22;5855;48.840;9.188;2022-10-16T15:05:16;27.40;97.60
11599;DHT22;5855;48.840;9.188;2022-10-16T15:07:43;27.40;97.30
11599;DHT22;5855;48.840;9.188;2022-10-16T15:10:10;27.70;97.10
11599;DHT22;5855;48.840;9.188;2022-10-16T15:12:37;28.00;96.90
11599;DHT22;5855;48.840;9.188;2022-10-16T15:15:35;28.20;96.50
11599;DHT22;5855;48.840;9.188;2022-10-16T15:18:04;28.50;96.40
11599;DHT22;5855;48.840;9.188;2022-10-16T15:20:33;29.10;95.20
11599;DHT22;5855;48.840;9.188;2022-10-16T15:23:01;29.60;93.70
11599;DHT22;5855;48.840;9.188;2022-10-16T15:25:34;29.70;92.90
11599;DHT22;5855;48.840;9.188;2022-10-16T15:28:03;29.60;92.60
11599;DHT22;5855;48.840;9.188;2022-10-16T15:30:30;29.30;93.10
11599;DHT22;5855;48.840;9.188;2022-10-16T15:32:57;28.90;93.40
11599;DHT22;5855;48.840;9.188;2022-10-16T15:35:23;28.50;94.60
11599;DHT22;5855;48.840;9.188;2022-10-16T15:37:52;28.30;95.30
11599;DHT22;5855;48.840;9.188;2022-10-16T15:40:19;28.00;96.10
11599;DHT22;5855;48.840;9.188;2022-10-16T15:42:46;27.80;97.30
11599;DHT22;5855;48.840;9.188;2022-10-16T15:45:14;27.50;97.80
11599;DHT22;5855;48.840;9.188;2022-10-16T15:47:41;27.20;98.60
11599;DHT22;5855;48.840;9.188;2022-10-16T15:50:10;26.90;99.30
11599;DHT22;5855;48.840;9.188;2022-10-16T15:52:37;26.80;99.90
11599;DHT22;5855;48.840;9.188;2022-10-16T15:55:07;26.70;99.90
11599;DHT22;5855;48.840;9.188;2022-10-16T15:57:34;26.40;99.90
11599;DHT22;5855;48.840;9.188;2022-10-16T16:00:05;26.30;99.90
11599;DHT22;5855;48.840;9.188;2022-10-16T16:02:32;26.10;99.90
11599;DHT22;5855;48.840;9.188;2022-10-16T16:04:59;26.00;99.90
11599;DHT22;5855;48.840;9.188;2022-10-16T16:07:25;25.80;99.90
11599;DHT22;5855;48.840;9.188;2022-10-16T16:09:53;25.60;99.90
11599;DHT22;5855;48.840;9.188;2022-10-16T16:12:21;25.40;99.90
11599;DHT22;5855;48.840;9.188;2022-10-16T16:14:47;25.20;99.90